Terminal Aerodrome Forecast
Issued by NWS Bismarck, ND

Home | Current Version | Previous Version | Text Only | Print | Product List | Glossary Off
Versions: 1 2 3 4 5 6 7 8 9 10 11 12 13 14 15 16 17

000
FTUS43 KBIS 182109 AAB
TAFBIS
TAF AMD
KBIS 182109Z 1821/1918 29014G20KT P6SM SKC
     FM190000 26008KT P6SM FEW200
     FM190200 23006KT P6SM FEW200
     FM190600 16005KT P6SM FEW200 WS020/21030KT
     FM191100 16006KT P6SM FEW200 SCT250=

USA.gov is the U.S. government's official web portal to all federal, state and local government web resources and services.